createdAt,value
2023-01-12T00:02:20.208Z,2.83
2023-01-12T00:04:46.749Z,2.20
2023-01-12T00:07:15.832Z,2.60
2023-01-12T00:09:42.373Z,2.30
2023-01-12T00:12:11.544Z,2.08
2023-01-12T00:14:39.039Z,2.10
2023-01-12T00:17:06.413Z,2.75
2023-01-12T00:19:33.918Z,2.22
2023-01-12T00:22:12.367Z,2.33
2023-01-12T00:24:42.101Z,2.08
2023-01-12T00:27:12.168Z,2.33
2023-01-12T00:29:39.074Z,2.28
2023-01-12T00:32:06.967Z,2.35
2023-01-12T00:34:33.529Z,2.17
2023-01-12T00:37:00.926Z,2.17
2023-01-12T00:39:27.436Z,2.20
2023-01-12T00:42:12.397Z,2.47
2023-01-12T00:44:57.227Z,2.00
2023-01-12T00:47:23.759Z,2.30
2023-01-12T00:49:50.426Z,2.28
2023-01-12T00:52:29.835Z,2.00
2023-01-12T00:54:57.385Z,2.00
2023-01-12T00:57:24.239Z,2.60
2023-01-12T00:59:51.633Z,2.70
2023-01-12T01:02:18.174Z,2.10
2023-01-12T01:04:44.666Z,2.47
2023-01-12T01:07:13.343Z,2.10
2023-01-12T01:09:39.748Z,2.03
2023-01-12T01:12:06.350Z,2.05
2023-01-12T01:14:32.925Z,2.45
2023-01-12T01:16:59.384Z,2.20
2023-01-12T01:19:25.819Z,1.90
2023-01-12T01:21:52.228Z,2.17
2023-01-12T01:24:18.774Z,1.90
2023-01-12T01:26:45.228Z,2.28
2023-01-12T01:29:11.766Z,1.92
2023-01-12T01:31:38.268Z,2.20
2023-01-12T01:34:04.811Z,1.90
2023-01-12T01:36:31.807Z,2.13
2023-01-12T01:38:58.502Z,2.08
2023-01-12T01:41:28.377Z,2.08
2023-01-12T01:44:00.814Z,1.98
2023-01-12T01:46:43.556Z,1.98
2023-01-12T01:49:17.608Z,2.20
2023-01-12T01:51:45.930Z,2.13
2023-01-12T01:54:13.892Z,2.10
2023-01-12T01:56:40.588Z,1.83
2023-01-12T01:59:18.641Z,2.13
2023-01-12T02:01:45.748Z,2.40
2023-01-12T02:04:12.876Z,1.95
2023-01-12T02:06:39.709Z,1.77
2023-01-12T02:09:18.696Z,1.70
2023-01-12T02:12:04.795Z,1.60
2023-01-12T02:14:52.094Z,1.70
2023-01-12T02:17:46.403Z,1.90
2023-01-12T02:23:22.577Z,2.05
2023-01-12T02:26:04.233Z,1.58
2023-01-12T02:28:36.822Z,1.80
2023-01-12T02:31:22.889Z,2.55
2023-01-12T02:34:15.882Z,1.92
2023-01-12T02:36:55.121Z,1.80
2023-01-12T02:39:30.719Z,1.77
2023-01-12T02:42:21.187Z,1.80
2023-01-12T02:44:55.321Z,1.70
2023-01-12T02:47:37.009Z,1.83
2023-01-12T02:50:09.607Z,2.00
2023-01-12T02:52:36.145Z,1.80
2023-01-12T02:55:04.612Z,1.75
2023-01-12T02:57:33.160Z,2.00
2023-01-12T03:00:01.519Z,1.83
2023-01-12T03:02:29.412Z,1.80
2023-01-12T03:04:55.873Z,1.92
2023-01-12T03:07:50.788Z,1.70
2023-01-12T03:10:29.396Z,1.90
2023-01-12T03:12:57.950Z,1.83
2023-01-12T03:15:25.013Z,1.75
2023-01-12T03:18:08.469Z,1.83
2023-01-12T03:20:39.466Z,1.90
2023-01-12T03:23:13.799Z,1.60
2023-01-12T03:25:44.290Z,1.77
2023-01-12T03:28:13.189Z,1.70
2023-01-12T03:31:09.001Z,1.70
2023-01-12T03:33:35.909Z,1.60
2023-01-12T03:36:08.855Z,1.65
2023-01-12T03:39:00.279Z,1.75
2023-01-12T03:41:48.552Z,1.83
2023-01-12T03:44:23.899Z,1.80
2023-01-12T03:47:03.819Z,2.20
2023-01-12T03:49:34.345Z,1.75
2023-01-12T03:52:03.617Z,1.40
2023-01-12T03:54:31.374Z,1.55
2023-01-12T03:56:58.643Z,1.60
2023-01-12T03:59:25.374Z,1.80
2023-01-12T04:01:52.015Z,1.65
2023-01-12T04:04:20.068Z,1.40
2023-01-12T04:06:46.529Z,1.50
2023-01-12T04:09:13.033Z,1.48
2023-01-12T04:11:58.254Z,1.58
2023-01-12T04:14:24.729Z,1.50
2023-01-12T04:16:52.026Z,1.77
2023-01-12T04:19:18.502Z,1.70
2023-01-12T04:22:03.574Z,1.67
2023-01-12T04:24:30.111Z,1.52
2023-01-12T04:26:56.579Z,1.60
2023-01-12T04:29:23.047Z,1.60
2023-01-12T04:31:49.519Z,1.67
2023-01-12T04:34:16.049Z,1.45
2023-01-12T04:36:43.134Z,1.70
2023-01-12T04:39:09.607Z,1.70
2023-01-12T04:41:36.164Z,1.50
2023-01-12T04:44:02.620Z,1.75
2023-01-12T04:46:29.052Z,1.40
2023-01-12T04:48:55.501Z,1.50
2023-01-12T04:51:21.950Z,1.50
2023-01-12T04:53:48.523Z,1.70
2023-01-12T04:56:15.146Z,1.63
2023-01-12T04:58:42.366Z,1.60
2023-01-12T05:01:16.935Z,1.70
2023-01-12T05:03:44.369Z,1.33
2023-01-12T05:06:11.577Z,1.98
2023-01-12T05:08:57.010Z,1.55
2023-01-12T05:11:28.434Z,1.50
2023-01-12T05:13:55.917Z,1.50
2023-01-12T05:16:22.824Z,1.92
2023-01-12T05:18:50.393Z,1.60
2023-01-12T05:21:18.055Z,1.40
2023-01-12T05:23:45.416Z,1.33
2023-01-12T05:26:12.451Z,1.60
2023-01-12T05:28:38.942Z,1.70
2023-01-12T05:31:11.244Z,1.50
2023-01-12T05:33:39.502Z,1.58
2023-01-12T05:36:11.422Z,1.25
2023-01-12T05:38:37.891Z,1.30
2023-01-12T05:41:07.279Z,1.52
2023-01-12T05:43:52.063Z,1.35
2023-01-12T05:46:24.164Z,1.35
2023-01-12T05:48:52.482Z,1.40
2023-01-12T05:51:19.596Z,1.35
2023-01-12T05:53:46.040Z,1.30
2023-01-12T05:56:26.600Z,1.40
2023-01-12T05:58:58.648Z,1.30
2023-01-12T06:01:26.154Z,1.10
2023-01-12T06:03:55.409Z,1.58
2023-01-12T06:06:23.423Z,1.23
2023-01-12T06:08:52.582Z,1.55
2023-01-12T06:11:38.743Z,1.35
2023-01-12T06:14:05.750Z,1.38
2023-01-12T06:16:32.634Z,1.42
2023-01-12T06:18:59.147Z,1.30
2023-01-12T06:21:25.622Z,1.45
2023-01-12T06:23:52.066Z,1.33
2023-01-12T06:26:18.594Z,1.27
2023-01-12T06:28:45.094Z,1.33
2023-01-12T06:31:13.613Z,1.13
2023-01-12T06:33:41.209Z,1.10
2023-01-12T06:36:08.351Z,1.40
2023-01-12T06:38:35.547Z,1.10
2023-01-12T06:41:06.921Z,1.38
2023-01-12T06:43:33.942Z,1.13
2023-01-12T06:46:00.501Z,1.40
2023-01-12T06:48:27.627Z,1.20
2023-01-12T06:51:05.930Z,1.42
2023-01-12T06:53:32.405Z,1.20
2023-01-12T06:55:58.849Z,1.40
2023-01-12T06:58:25.335Z,1.27
2023-01-12T07:00:51.972Z,1.20
2023-01-12T07:03:19.890Z,1.30
2023-01-12T07:05:46.543Z,1.10
2023-01-12T07:08:19.082Z,1.10
2023-01-12T07:10:46.160Z,1.20
2023-01-12T07:13:12.794Z,0.95
2023-01-12T07:15:39.396Z,0.90
2023-01-12T07:18:05.920Z,1.10
2023-01-12T07:20:33.265Z,1.10
2023-01-12T07:22:59.812Z,1.10
2023-01-12T07:25:26.707Z,1.00
2023-01-12T07:27:57.813Z,1.35
2023-01-12T07:30:25.843Z,1.30
2023-01-12T07:32:52.611Z,0.90
2023-01-12T07:35:19.084Z,1.00
2023-01-12T07:37:49.914Z,1.10
2023-01-12T07:40:16.916Z,1.10
2023-01-12T07:42:43.586Z,1.20
2023-01-12T07:45:10.885Z,1.13
2023-01-12T07:47:37.373Z,1.10
2023-01-12T07:50:04.351Z,1.45
2023-01-12T07:52:30.863Z,1.10
2023-01-12T07:54:57.403Z,1.10
2023-01-12T07:59:08.863Z,1.00
2023-01-12T08:01:35.903Z,1.40
2023-01-12T08:04:02.554Z,1.20
2023-01-12T08:06:28.979Z,1.33
2023-01-12T08:08:55.665Z,1.23
2023-01-12T08:11:22.969Z,0.93
2023-01-12T08:13:53.803Z,1.10
2023-01-12T08:16:29.487Z,0.90
2023-01-12T08:19:01.906Z,1.20
2023-01-12T08:21:36.973Z,1.15
2023-01-12T08:24:05.936Z,1.17
2023-01-12T08:26:37.997Z,1.10
2023-01-12T08:29:14.226Z,0.90
2023-01-12T08:31:41.578Z,0.90
2023-01-12T08:34:09.087Z,1.23
2023-01-12T08:36:39.163Z,1.10
2023-01-12T08:39:05.665Z,0.90
2023-01-12T08:41:32.306Z,1.33
2023-01-12T08:44:16.705Z,1.30
2023-01-12T08:46:48.723Z,0.98
2023-01-12T08:49:17.248Z,1.13
2023-01-12T08:51:44.587Z,1.15
2023-01-12T08:54:12.602Z,1.20
2023-01-12T08:56:39.604Z,1.10
2023-01-12T08:59:06.223Z,1.23
2023-01-12T09:01:33.784Z,1.05
2023-01-12T09:04:00.668Z,0.82
2023-01-12T09:06:31.433Z,1.30
2023-01-12T09:09:00.379Z,1.15
2023-01-12T09:11:28.925Z,1.00
2023-01-12T09:13:56.237Z,1.17
2023-01-12T09:16:22.868Z,1.02
2023-01-12T09:18:49.443Z,0.80
2023-01-12T09:21:18.829Z,1.00
2023-01-12T09:23:46.240Z,0.95
2023-01-12T09:26:15.348Z,1.33
2023-01-12T09:28:44.373Z,1.30
2023-01-12T09:31:14.077Z,1.30
2023-01-12T09:33:42.036Z,1.50
2023-01-12T09:36:14.138Z,1.60
2023-01-12T09:38:41.875Z,1.30
2023-01-12T09:41:42.459Z,1.80
2023-01-12T09:44:56.529Z,1.90
2023-01-12T09:47:48.240Z,1.80
2023-01-12T09:50:22.541Z,1.67
2023-01-12T09:53:01.744Z,1.50
2023-01-12T09:55:43.782Z,1.60
2023-01-12T09:58:25.994Z,2.28
2023-01-12T10:00:55.205Z,1.95
2023-01-12T10:03:27.073Z,1.42
2023-01-12T10:05:58.020Z,1.63
2023-01-12T10:08:36.733Z,2.03
2023-01-12T10:11:41.450Z,1.77
2023-01-12T10:14:33.437Z,1.70
2023-01-12T10:17:13.346Z,1.70
2023-01-12T10:19:56.223Z,1.60
2023-01-12T10:22:37.861Z,1.50
2023-01-12T10:25:09.090Z,1.30
2023-01-12T10:27:41.046Z,1.50
2023-01-12T10:30:18.190Z,2.00
2023-01-12T10:32:44.671Z,1.60
2023-01-12T10:35:17.473Z,1.40
2023-01-12T10:37:55.298Z,1.50
2023-01-12T10:40:31.234Z,1.25
2023-01-12T10:43:20.001Z,1.48
2023-01-12T10:46:04.941Z,1.30
2023-01-12T10:48:32.219Z,1.27
2023-01-12T10:51:05.249Z,1.40
2023-01-12T10:53:54.485Z,1.23
2023-01-12T10:56:29.658Z,1.30
2023-01-12T10:59:03.564Z,1.60
2023-01-12T11:02:05.392Z,1.40
2023-01-12T11:04:38.863Z,1.23
2023-01-12T11:07:13.186Z,1.35
2023-01-12T11:09:41.881Z,1.10
2023-01-12T11:12:29.715Z,1.10
2023-01-12T11:15:14.446Z,1.27
2023-01-12T11:18:00.995Z,1.30
2023-01-12T11:20:41.368Z,1.30
2023-01-12T11:23:16.531Z,1.38
2023-01-12T11:25:49.478Z,1.20
2023-01-12T11:28:27.430Z,1.25
2023-01-12T11:31:00.722Z,1.25
2023-01-12T11:33:57.280Z,1.50
2023-01-12T11:36:37.816Z,1.70
2023-01-12T11:39:13.851Z,1.15
2023-01-12T11:42:08.305Z,1.05
2023-01-12T11:44:43.469Z,1.38
2023-01-12T11:47:15.194Z,1.30
2023-01-12T11:49:44.486Z,1.23
2023-01-12T11:52:13.481Z,1.00
2023-01-12T11:54:40.966Z,1.20
2023-01-12T11:57:35.899Z,1.23
2023-01-12T12:00:06.869Z,1.40
2023-01-12T12:02:45.659Z,1.30
2023-01-12T12:05:33.353Z,1.13
2023-01-12T12:08:13.096Z,1.52
2023-01-12T12:10:51.020Z,1.40
2023-01-12T12:13:23.572Z,1.10
2023-01-12T12:15:54.654Z,1.33
2023-01-12T12:18:35.875Z,1.40
2023-01-12T12:21:30.378Z,1.27
2023-01-12T12:24:10.295Z,0.90
2023-01-12T12:26:42.422Z,1.25
2023-01-12T12:29:17.544Z,1.20
2023-01-12T12:32:05.091Z,1.35
2023-01-12T12:35:22.917Z,1.10
2023-01-12T12:38:08.171Z,1.40
2023-01-12T12:41:31.217Z,1.67
2023-01-12T12:44:34.298Z,1.00
2023-01-12T12:47:06.200Z,1.20
2023-01-12T12:49:35.907Z,1.30
2023-01-12T12:52:03.062Z,1.20
2023-01-12T12:54:30.259Z,1.17
2023-01-12T12:56:57.550Z,0.90
2023-01-12T12:59:33.177Z,0.98
2023-01-12T13:02:02.101Z,1.40
2023-01-12T13:04:43.541Z,1.08
2023-01-12T13:07:18.250Z,1.20
2023-01-12T13:09:45.994Z,0.93
2023-01-12T13:12:12.927Z,0.60
2023-01-12T13:14:43.074Z,0.90
2023-01-12T13:17:18.578Z,1.00
2023-01-12T13:20:00.798Z,0.77
2023-01-12T13:22:39.732Z,1.13
2023-01-12T13:25:19.430Z,1.20
2023-01-12T13:28:01.258Z,0.70
2023-01-12T13:30:30.603Z,0.80
2023-01-12T13:33:29.337Z,0.73
2023-01-12T13:36:00.882Z,0.80
2023-01-12T13:38:39.140Z,1.00
2023-01-12T13:41:14.688Z,0.80
2023-01-12T13:43:49.394Z,1.00
2023-01-12T13:46:45.385Z,1.00
2023-01-12T13:49:25.731Z,0.90
2023-01-12T13:52:00.807Z,0.82
2023-01-12T13:54:28.147Z,0.80
2023-01-12T13:57:04.011Z,0.77
2023-01-12T13:59:30.940Z,0.80
2023-01-12T14:01:57.930Z,0.90
2023-01-12T14:04:36.278Z,0.70
2023-01-12T14:07:30.619Z,0.70
2023-01-12T14:10:11.072Z,1.10
2023-01-12T14:13:01.521Z,0.70
2023-01-12T14:15:54.182Z,0.70
2023-01-12T14:18:23.710Z,0.88
2023-01-12T14:20:58.692Z,0.70
2023-01-12T14:23:33.639Z,0.95
2023-01-12T14:26:09.318Z,0.90
2023-01-12T14:28:37.882Z,0.77
2023-01-12T14:31:07.124Z,0.82
2023-01-12T14:33:37.454Z,0.90
2023-01-12T14:36:13.669Z,0.90
2023-01-12T14:38:42.747Z,0.82
2023-01-12T14:41:35.912Z,0.80
2023-01-12T14:44:21.361Z,1.13
2023-01-12T14:46:51.751Z,0.82
2023-01-12T14:49:29.925Z,0.85
2023-01-12T14:52:00.309Z,0.85
2023-01-12T14:54:28.252Z,0.65
2023-01-12T14:57:01.437Z,1.00
2023-01-12T14:59:30.845Z,0.85
2023-01-12T15:02:33.169Z,0.80
2023-01-12T15:05:03.746Z,1.00
2023-01-12T15:07:35.073Z,0.70
2023-01-12T15:10:25.745Z,0.90
2023-01-12T15:12:54.534Z,1.00
2023-01-12T15:15:47.396Z,0.80
2023-01-12T15:18:32.757Z,0.93
2023-01-12T15:21:18.221Z,0.80
2023-01-12T15:24:03.364Z,0.90
2023-01-12T15:26:29.821Z,0.80
2023-01-12T15:28:56.258Z,0.82
2023-01-12T15:31:33.038Z,0.90
2023-01-12T15:34:00.633Z,0.95
2023-01-12T15:36:27.192Z,1.10
2023-01-12T15:38:54.079Z,0.70
2023-01-12T15:41:44.520Z,0.70
2023-01-12T15:44:16.615Z,0.80
2023-01-12T15:46:43.639Z,0.63
2023-01-12T15:49:13.237Z,1.00
2023-01-12T15:51:40.775Z,0.60
2023-01-12T15:54:09.933Z,0.80
2023-01-12T15:56:36.518Z,0.65
2023-01-12T15:59:03.619Z,1.00
2023-01-12T16:01:42.545Z,0.73
2023-01-12T16:04:42.048Z,1.00
2023-01-12T16:07:08.677Z,0.60
2023-01-12T16:09:35.236Z,0.88
2023-01-12T16:12:01.641Z,0.60
2023-01-12T16:14:28.106Z,0.70
2023-01-12T16:16:54.693Z,0.80
2023-01-12T16:19:22.295Z,0.63
2023-01-12T16:21:48.799Z,0.70
2023-01-12T16:24:15.578Z,0.80
2023-01-12T16:26:42.098Z,0.60
2023-01-12T16:29:08.921Z,0.70
2023-01-12T16:31:38.105Z,0.70
2023-01-12T16:34:05.708Z,0.80
2023-01-12T16:36:32.213Z,0.68
2023-01-12T16:38:58.738Z,0.60
2023-01-12T16:41:25.276Z,0.60
2023-01-12T16:43:52.070Z,0.57
2023-01-12T16:46:18.806Z,0.70
2023-01-12T16:48:45.376Z,0.80
2023-01-12T16:51:16.678Z,0.60
2023-01-12T16:53:43.462Z,0.75
2023-01-12T16:56:11.904Z,0.60
2023-01-12T16:58:38.711Z,0.60
2023-01-12T17:01:24.132Z,0.70
2023-01-12T17:03:52.485Z,0.60
2023-01-12T17:06:21.008Z,0.85
2023-01-12T17:08:47.977Z,0.90
2023-01-12T17:11:19.657Z,0.52
2023-01-12T17:13:55.137Z,0.68
2023-01-12T17:16:23.757Z,0.70
2023-01-12T17:18:50.989Z,0.65
2023-01-12T17:21:18.768Z,0.80
2023-01-12T17:23:45.892Z,0.40
2023-01-12T17:26:15.462Z,0.70
2023-01-12T17:31:48.236Z,0.60
2023-01-12T17:34:15.578Z,0.60
2023-01-12T17:36:42.527Z,0.70
2023-01-12T17:39:09.790Z,0.57
2023-01-12T17:41:55.355Z,0.90
2023-01-12T17:44:22.044Z,0.50
2023-01-12T17:46:48.582Z,0.70
2023-01-12T17:49:15.346Z,0.50
2023-01-12T17:51:41.971Z,0.60
2023-01-12T18:24:14.100Z,0.90
2023-01-12T18:26:40.582Z,1.50
2023-01-12T18:29:07.267Z,1.33
2023-01-12T18:31:37.805Z,1.30
2023-01-12T18:34:06.139Z,1.48
2023-01-12T18:36:35.137Z,1.73
2023-01-12T18:39:03.561Z,1.20
2023-01-12T18:41:48.424Z,1.33
2023-01-12T18:44:14.941Z,1.58
2023-01-12T18:47:02.293Z,1.40
2023-01-12T18:49:31.989Z,2.60
2023-01-12T18:52:18.100Z,1.50
2023-01-12T18:54:44.957Z,2.13
2023-01-12T18:57:13.827Z,1.58
2023-01-12T18:59:41.934Z,1.52
2023-01-12T19:02:11.371Z,1.80
2023-01-12T19:04:58.382Z,1.70
2023-01-12T19:07:39.819Z,1.67
2023-01-12T19:10:06.756Z,2.03
2023-01-12T19:12:34.648Z,1.50
2023-01-12T19:15:19.651Z,1.88
2023-01-12T19:17:46.288Z,1.80
2023-01-12T19:20:15.838Z,1.58
2023-01-12T19:23:01.085Z,1.70
2023-01-12T19:25:46.657Z,1.92
2023-01-12T19:28:34.590Z,1.65
2023-01-12T19:31:11.817Z,1.85
2023-01-12T19:33:39.268Z,1.60
2023-01-12T19:36:07.790Z,1.45
2023-01-12T19:38:35.968Z,1.50
2023-01-12T19:41:12.111Z,1.60
2023-01-12T19:43:45.334Z,1.58
2023-01-12T19:46:12.994Z,1.98
2023-01-12T19:48:39.554Z,1.83
2023-01-12T19:51:10.439Z,2.00
2023-01-12T19:53:39.016Z,2.55
2023-01-12T19:56:12.762Z,1.50
2023-01-12T19:58:40.116Z,1.95
2023-01-12T20:01:11.032Z,1.90
2023-01-12T20:03:41.743Z,2.10
2023-01-12T20:06:08.665Z,1.75
2023-01-12T20:08:35.233Z,2.03
2023-01-12T20:11:04.876Z,1.80
2023-01-12T20:13:32.580Z,1.40
2023-01-12T20:15:59.466Z,1.65
2023-01-12T20:18:26.106Z,1.80
2023-01-12T20:20:53.594Z,1.67
2023-01-12T20:23:20.333Z,1.80
2023-01-12T20:25:47.100Z,4.68
2023-01-12T20:28:14.206Z,2.08
2023-01-12T20:30:43.820Z,1.80
2023-01-12T20:33:11.537Z,1.75
2023-01-12T20:35:43.433Z,1.90
2023-01-12T20:38:15.506Z,2.10
2023-01-12T20:40:43.593Z,2.28
2023-01-12T20:43:10.614Z,1.67
2023-01-12T20:45:37.404Z,1.70
2023-01-12T20:48:04.570Z,2.00
2023-01-12T20:50:33.187Z,2.70
2023-01-12T20:53:00.053Z,2.28
2023-01-12T20:55:26.653Z,1.52
2023-01-12T20:57:53.184Z,1.40
2023-01-12T21:00:19.851Z,1.55
2023-01-12T21:02:46.427Z,1.80
2023-01-12T21:05:13.014Z,2.00
2023-01-12T21:07:39.568Z,1.90
2023-01-12T21:10:08.660Z,1.63
2023-01-12T21:12:35.176Z,1.60
2023-01-12T21:15:04.801Z,1.75
2023-01-12T21:17:31.611Z,1.40
2023-01-12T21:19:58.274Z,1.55
2023-01-12T21:22:25.351Z,2.28
2023-01-12T21:24:51.857Z,1.90
2023-01-12T21:27:18.447Z,1.63
2023-01-12T21:29:47.905Z,2.03
2023-01-12T21:32:14.419Z,1.92
2023-01-12T21:34:41.093Z,2.55
2023-01-12T21:37:07.822Z,1.85
2023-01-12T21:39:35.315Z,2.35
2023-01-12T21:42:20.493Z,1.83
2023-01-12T21:44:47.144Z,1.85
2023-01-12T21:47:13.914Z,2.30
2023-01-12T21:49:40.477Z,2.13
2023-01-12T21:52:06.993Z,2.30
2023-01-12T21:54:33.484Z,1.88
2023-01-12T21:57:00.097Z,1.92
2023-01-12T21:59:26.651Z,1.85
2023-01-12T22:01:53.270Z,2.95
2023-01-12T22:04:19.884Z,2.00
2023-01-12T22:06:46.411Z,2.40
2023-01-12T22:09:12.921Z,2.92
2023-01-12T22:11:39.394Z,2.47
2023-01-12T22:14:05.900Z,2.92
2023-01-12T22:16:32.508Z,2.08
2023-01-12T22:18:59.055Z,2.05
2023-01-12T22:21:26.097Z,2.10
2023-01-12T22:23:52.771Z,2.50
2023-01-12T22:26:20.035Z,2.00
2023-01-12T22:28:47.853Z,2.63
2023-01-12T22:31:17.258Z,1.67
2023-01-12T22:33:48.116Z,1.67
2023-01-12T22:36:14.850Z,1.88
2023-01-12T22:38:42.247Z,1.90
2023-01-12T22:41:10.667Z,2.00
2023-01-12T22:43:40.839Z,1.60
2023-01-12T22:46:21.993Z,1.67
2023-01-12T22:49:01.330Z,2.08
2023-01-12T22:51:29.360Z,1.60
2023-01-12T22:53:56.654Z,1.40
2023-01-12T22:56:23.251Z,1.52
2023-01-12T22:58:51.897Z,1.40
2023-01-12T23:01:20.112Z,2.00
2023-01-12T23:03:48.620Z,1.73
2023-01-12T23:06:16.857Z,1.60
2023-01-12T23:08:44.709Z,1.60
2023-01-12T23:11:23.605Z,1.73
2023-01-12T23:13:51.195Z,1.50
2023-01-12T23:16:19.230Z,1.75
2023-01-12T23:18:47.636Z,1.65
2023-01-12T23:21:17.568Z,1.67
2023-01-12T23:24:11.480Z,2.17
2023-01-12T23:26:38.119Z,1.60
2023-01-12T23:29:04.803Z,1.60
2023-01-12T23:31:33.649Z,1.60
2023-01-12T23:34:01.381Z,1.30
2023-01-12T23:36:29.660Z,1.35
2023-01-12T23:39:01.336Z,1.30
2023-01-12T23:41:30.122Z,1.75
2023-01-12T23:44:02.022Z,1.40
2023-01-12T23:46:31.062Z,1.27
2023-01-12T23:48:58.105Z,1.25
2023-01-12T23:51:26.515Z,1.58
2023-01-12T23:53:54.535Z,1.88
2023-01-12T23:56:22.217Z,1.50
2023-01-12T23:58:49.108Z,1.33
